sensor_id;sensor_type;location;lat;lon;timestamp;pressure;altitude;pressure_sealevel;temperature;humidity
21203;BME280;10759;51.982;9.232;2024-03-02T00:00:42;99141.72;;;6.61;100.00
21203;BME280;10759;51.982;9.232;2024-03-02T00:03:11;99156.97;;;6.80;100.00
21203;BME280;10759;51.982;9.232;2024-03-02T00:05:41;99148.13;;;6.79;100.00
21203;BME280;10759;51.982;9.232;2024-03-02T00:08:09;99154.78;;;6.90;100.00
21203;BME280;10759;51.982;9.232;2024-03-02T00:10:38;99154.34;;;6.78;100.00
21203;BME280;10759;51.982;9.232;2024-03-02T00:13:07;99148.78;;;6.84;100.00
21203;BME280;10759;51.982;9.232;2024-03-02T00:15:42;99154.16;;;6.83;100.00
21203;BME280;10759;51.982;9.232;2024-03-02T00:18:16;99149.97;;;6.77;100.00
21203;BME280;10759;51.982;9.232;2024-03-02T00:20:45;99144.38;;;6.83;100.00
21203;BME280;10759;51.982;9.232;2024-03-02T00:23:14;99143.38;;;6.86;100.00
21203;BME280;10759;51.982;9.232;2024-03-02T00:25:44;99150.97;;;6.95;100.00
21203;BME280;10759;51.982;9.232;2024-03-02T00:28:17;99158.03;;;6.96;100.00
21203;BME280;10759;51.982;9.232;2024-03-02T00:31:06;99153.88;;;6.89;100.00
21203;BME280;10759;51.982;9.232;2024-03-02T00:33:35;99157.84;;;7.01;100.00
21203;BME280;10759;51.982;9.232;2024-03-02T00:36:05;99160.16;;;6.88;100.00
21203;BME280;10759;51.982;9.232;2024-03-02T00:38:34;99157.00;;;6.78;100.00
21203;BME280;10759;51.982;9.232;2024-03-02T00:41:05;99149.78;;;6.82;100.00
21203;BME280;10759;51.982;9.232;2024-03-02T00:43:45;99151.69;;;6.78;100.00
21203;BME280;10759;51.982;9.232;2024-03-02T00:46:19;99157.00;;;6.78;100.00
21203;BME280;10759;51.982;9.232;2024-03-02T00:48:53;99114.44;;;6.56;100.00
21203;BME280;10759;51.982;9.232;2024-03-02T00:51:23;99150.34;;;6.68;100.00
21203;BME280;10759;51.982;9.232;2024-03-02T00:53:52;99152.47;;;6.60;100.00
21203;BME280;10759;51.982;9.232;2024-03-02T00:56:23;99148.00;;;6.60;100.00
21203;BME280;10759;51.982;9.232;2024-03-02T00:58:51;99150.91;;;6.54;100.00
21203;BME280;10759;51.982;9.232;2024-03-02T01:01:21;99141.06;;;6.56;100.00
21203;BME280;10759;51.982;9.232;2024-03-02T01:03:49;99158.09;;;6.52;100.00
21203;BME280;10759;51.982;9.232;2024-03-02T01:06:18;99152.56;;;6.57;100.00
21203;BME280;10759;51.982;9.232;2024-03-02T01:08:46;99151.56;;;6.59;100.00
21203;BME280;10759;51.982;9.232;2024-03-02T01:11:18;99147.69;;;6.46;100.00
21203;BME280;10759;51.982;9.232;2024-03-02T01:13:49;99156.53;;;6.47;100.00
21203;BME280;10759;51.982;9.232;2024-03-02T01:16:18;99147.56;;;6.49;100.00
21203;BME280;10759;51.982;9.232;2024-03-02T01:18:48;99142.63;;;6.40;100.00
21203;BME280;10759;51.982;9.232;2024-03-02T01:21:16;99149.69;;;6.41;100.00
21203;BME280;10759;51.982;9.232;2024-03-02T01:23:45;99126.84;;;6.35;100.00
21203;BME280;10759;51.982;9.232;2024-03-02T01:26:13;99144.31;;;6.42;100.00
21203;BME280;10759;51.982;9.232;2024-03-02T01:28:41;99140.84;;;6.40;100.00
21203;BME280;10759;51.982;9.232;2024-03-02T01:31:09;99133.41;;;6.49;100.00
21203;BME280;10759;51.982;9.232;2024-03-02T01:33:36;99135.63;;;6.37;100.00
21203;BME280;10759;51.982;9.232;2024-03-02T01:36:06;99129.56;;;6.34;100.00
21203;BME280;10759;51.982;9.232;2024-03-02T01:38:35;99129.06;;;6.24;100.00
21203;BME280;10759;51.982;9.232;2024-03-02T01:41:03;99121.75;;;6.07;100.00
21203;BME280;10759;51.982;9.232;2024-03-02T01:43:31;99131.34;;;6.11;100.00
21203;BME280;10759;51.982;9.232;2024-03-02T01:45:59;99126.72;;;6.16;100.00
21203;BME280;10759;51.982;9.232;2024-03-02T01:48:27;99120.16;;;6.25;100.00
21203;BME280;10759;51.982;9.232;2024-03-02T01:50:55;99123.69;;;6.26;100.00
21203;BME280;10759;51.982;9.232;2024-03-02T01:53:25;99118.19;;;6.30;100.00
21203;BME280;10759;51.982;9.232;2024-03-02T01:55:53;99123.63;;;6.27;100.00
21203;BME280;10759;51.982;9.232;2024-03-02T01:58:21;99115.72;;;6.26;100.00
21203;BME280;10759;51.982;9.232;2024-03-02T02:00:49;99113.56;;;6.35;100.00
21203;BME280;10759;51.982;9.232;2024-03-02T02:03:17;99115.44;;;6.32;100.00
21203;BME280;10759;51.982;9.232;2024-03-02T02:05:45;99115.03;;;6.20;100.00
21203;BME280;10759;51.982;9.232;2024-03-02T02:08:14;99111.31;;;6.24;100.00
21203;BME280;10759;51.982;9.232;2024-03-02T02:10:44;99115.13;;;6.17;100.00
21203;BME280;10759;51.982;9.232;2024-03-02T02:13:12;99117.78;;;6.17;100.00
21203;BME280;10759;51.982;9.232;2024-03-02T02:15:40;99111.13;;;6.07;100.00
21203;BME280;10759;51.982;9.232;2024-03-02T02:18:08;99118.06;;;6.11;100.00
21203;BME280;10759;51.982;9.232;2024-03-02T02:20:36;99110.88;;;6.13;100.00
21203;BME280;10759;51.982;9.232;2024-03-02T02:23:05;99109.56;;;6.01;100.00
21203;BME280;10759;51.982;9.232;2024-03-02T02:25:36;99104.31;;;6.00;100.00
21203;BME280;10759;51.982;9.232;2024-03-02T02:28:04;99096.78;;;5.88;100.00
21203;BME280;10759;51.982;9.232;2024-03-02T02:30:32;99097.84;;;5.84;100.00
21203;BME280;10759;51.982;9.232;2024-03-02T02:33:01;99102.38;;;5.80;100.00
21203;BME280;10759;51.982;9.232;2024-03-02T02:35:30;99102.22;;;5.85;100.00
21203;BME280;10759;51.982;9.232;2024-03-02T02:37:58;99087.16;;;5.62;100.00
21203;BME280;10759;51.982;9.232;2024-03-02T02:40:28;99041.81;;;5.19;100.00
21203;BME280;10759;51.982;9.232;2024-03-02T02:42:57;99083.50;;;5.41;100.00
21203;BME280;10759;51.982;9.232;2024-03-02T02:45:26;99090.16;;;5.29;100.00
21203;BME280;10759;51.982;9.232;2024-03-02T02:47:54;99094.19;;;5.15;100.00
21203;BME280;10759;51.982;9.232;2024-03-02T02:50:21;99095.28;;;5.10;100.00
21203;BME280;10759;51.982;9.232;2024-03-02T02:52:49;99087.69;;;4.99;100.00
21203;BME280;10759;51.982;9.232;2024-03-02T02:55:17;99094.63;;;5.03;100.00
21203;BME280;10759;51.982;9.232;2024-03-02T02:57:47;99093.19;;;5.18;100.00
21203;BME280;10759;51.982;9.232;2024-03-02T03:00:16;99089.72;;;5.16;100.00
21203;BME280;10759;51.982;9.232;2024-03-02T03:02:47;99077.38;;;5.15;100.00
21203;BME280;10759;51.982;9.232;2024-03-02T03:05:17;99089.19;;;5.06;100.00
21203;BME280;10759;51.982;9.232;2024-03-02T03:07:46;99092.00;;;5.02;100.00
21203;BME280;10759;51.982;9.232;2024-03-02T03:10:17;99081.09;;;4.86;100.00
21203;BME280;10759;51.982;9.232;2024-03-02T03:12:46;99085.78;;;5.03;100.00
21203;BME280;10759;51.982;9.232;2024-03-02T03:15:15;99088.19;;;4.85;100.00
21203;BME280;10759;51.982;9.232;2024-03-02T03:17:44;99085.63;;;4.82;100.00
21203;BME280;10759;51.982;9.232;2024-03-02T03:20:13;99084.91;;;4.77;100.00
21203;BME280;10759;51.982;9.232;2024-03-02T03:22:42;99078.47;;;4.59;100.00
21203;BME280;10759;51.982;9.232;2024-03-02T03:25:10;99101.47;;;4.85;100.00
21203;BME280;10759;51.982;9.232;2024-03-02T03:27:38;99103.84;;;4.93;100.00
21203;BME280;10759;51.982;9.232;2024-03-02T03:30:08;99099.19;;;5.00;100.00
21203;BME280;10759;51.982;9.232;2024-03-02T03:32:36;99088.22;;;4.84;100.00
21203;BME280;10759;51.982;9.232;2024-03-02T03:35:05;99090.34;;;4.74;100.00
21203;BME280;10759;51.982;9.232;2024-03-02T03:37:33;99082.13;;;4.55;100.00
21203;BME280;10759;51.982;9.232;2024-03-02T03:40:02;99080.66;;;4.46;100.00
21203;BME280;10759;51.982;9.232;2024-03-02T03:42:34;99074.66;;;4.41;100.00
21203;BME280;10759;51.982;9.232;2024-03-02T03:45:02;99074.75;;;4.38;100.00
21203;BME280;10759;51.982;9.232;2024-03-02T03:47:32;99072.81;;;4.43;100.00
21203;BME280;10759;51.982;9.232;2024-03-02T03:50:00;99070.44;;;4.36;100.00
21203;BME280;10759;51.982;9.232;2024-03-02T03:52:31;99080.97;;;4.37;100.00
21203;BME280;10759;51.982;9.232;2024-03-02T03:54:59;99071.47;;;4.30;100.00
21203;BME280;10759;51.982;9.232;2024-03-02T03:57:27;99076.78;;;4.30;100.00
21203;BME280;10759;51.982;9.232;2024-03-02T03:59:55;99071.78;;;4.21;100.00
21203;BME280;10759;51.982;9.232;2024-03-02T04:02:23;99041.69;;;3.95;100.00
21203;BME280;10759;51.982;9.232;2024-03-02T04:04:53;99083.28;;;4.21;100.00
21203;BME280;10759;51.982;9.232;2024-03-02T04:07:21;99074.94;;;4.32;100.00
21203;BME280;10759;51.982;9.232;2024-03-02T04:09:49;99078.47;;;4.33;100.00
21203;BME280;10759;51.982;9.232;2024-03-02T04:12:17;99071.78;;;4.21;100.00
21203;BME280;10759;51.982;9.232;2024-03-02T04:14:45;99077.63;;;4.30;100.00
21203;BME280;10759;51.982;9.232;2024-03-02T04:17:13;99086.81;;;4.20;100.00
21203;BME280;10759;51.982;9.232;2024-03-02T04:19:41;99061.56;;;4.08;100.00
21203;BME280;10759;51.982;9.232;2024-03-02T04:22:10;99081.72;;;4.14;100.00
21203;BME280;10759;51.982;9.232;2024-03-02T04:24:50;99076.31;;;4.17;100.00
21203;BME280;10759;51.982;9.232;2024-03-02T04:27:18;99079.34;;;4.06;100.00
21203;BME280;10759;51.982;9.232;2024-03-02T04:29:46;99077.97;;;3.93;100.00
21203;BME280;10759;51.982;9.232;2024-03-02T04:32:14;99080.38;;;4.01;100.00
21203;BME280;10759;51.982;9.232;2024-03-02T04:34:42;99048.91;;;3.90;100.00
21203;BME280;10759;51.982;9.232;2024-03-02T04:37:12;99078.94;;;3.91;100.00
21203;BME280;10759;51.982;9.232;2024-03-02T04:39:41;99082.78;;;4.08;100.00
21203;BME280;10759;51.982;9.232;2024-03-02T04:42:09;99077.97;;;3.93;100.00
21203;BME280;10759;51.982;9.232;2024-03-02T04:44:37;99074.41;;;3.94;100.00
21203;BME280;10759;51.982;9.232;2024-03-02T04:47:05;99088.75;;;4.15;100.00
21203;BME280;10759;51.982;9.232;2024-03-02T04:49:33;99087.31;;;4.05;100.00
21203;BME280;10759;51.982;9.232;2024-03-02T04:52:01;98992.75;;;3.51;100.00
21203;BME280;10759;51.982;9.232;2024-03-02T04:54:31;99068.59;;;3.81;100.00
21203;BME280;10759;51.982;9.232;2024-03-02T04:56:59;99103.34;;;4.02;100.00
21203;BME280;10759;51.982;9.232;2024-03-02T04:59:26;99015.03;;;3.43;100.00
21203;BME280;10759;51.982;9.232;2024-03-02T05:01:54;99102.38;;;4.04;100.00
21203;BME280;10759;51.982;9.232;2024-03-02T05:04:21;99061.34;;;3.88;100.00
21203;BME280;10759;51.982;9.232;2024-03-02T05:06:49;99096.19;;;4.04;100.00
21203;BME280;10759;51.982;9.232;2024-03-02T05:09:19;99098.16;;;3.97;100.00
21203;BME280;10759;51.982;9.232;2024-03-02T05:11:49;99104.19;;;4.02;100.00
21203;BME280;10759;51.982;9.232;2024-03-02T05:14:34;99097.03;;;3.76;100.00
21203;BME280;10759;51.982;9.232;2024-03-02T05:17:02;99097.97;;;3.75;100.00
21203;BME280;10759;51.982;9.232;2024-03-02T05:19:30;99093.25;;;3.85;100.00
21203;BME280;10759;51.982;9.232;2024-03-02T05:22:00;99087.28;;;4.06;100.00
21203;BME280;10759;51.982;9.232;2024-03-02T05:24:29;98990.50;;;3.93;100.00
21203;BME280;10759;51.982;9.232;2024-03-02T05:26:59;99090.19;;;4.52;100.00
21203;BME280;10759;51.982;9.232;2024-03-02T05:29:27;99087.94;;;4.40;100.00
21203;BME280;10759;51.982;9.232;2024-03-02T05:31:55;99086.50;;;4.31;100.00
21203;BME280;10759;51.982;9.232;2024-03-02T05:34:23;99084.69;;;4.32;100.00
21203;BME280;10759;51.982;9.232;2024-03-02T05:36:51;99091.78;;;4.31;100.00
21203;BME280;10759;51.982;9.232;2024-03-02T05:39:19;99100.81;;;4.52;100.00
21203;BME280;10759;51.982;9.232;2024-03-02T05:41:47;99105.66;;;4.39;100.00
21203;BME280;10759;51.982;9.232;2024-03-02T05:44:16;99102.53;;;4.26;100.00
21203;BME280;10759;51.982;9.232;2024-03-02T05:46:45;99104.41;;;4.23;100.00
21203;BME280;10759;51.982;9.232;2024-03-02T05:49:13;99104.63;;;4.17;100.00
21203;BME280;10759;51.982;9.232;2024-03-02T05:51:41;99098.41;;;4.18;100.00
21203;BME280;10759;51.982;9.232;2024-03-02T05:54:09;99107.47;;;4.11;100.00
21203;BME280;10759;51.982;9.232;2024-03-02T05:56:37;99099.50;;;4.11;100.00
21203;BME280;10759;51.982;9.232;2024-03-02T05:59:05;99106.25;;;4.47;100.00
21203;BME280;10759;51.982;9.232;2024-03-02T06:01:42;99100.34;;;4.66;100.00
21203;BME280;10759;51.982;9.232;2024-03-02T06:04:10;99107.59;;;4.61;100.00
21203;BME280;10759;51.982;9.232;2024-03-02T06:06:38;99104.94;;;4.61;100.00
21203;BME280;10759;51.982;9.232;2024-03-02T06:09:07;99017.00;;;4.20;100.00
21203;BME280;10759;51.982;9.232;2024-03-02T06:11:35;99114.03;;;4.80;100.00
21203;BME280;10759;51.982;9.232;2024-03-02T06:14:04;99116.41;;;4.88;100.00
21203;BME280;10759;51.982;9.232;2024-03-02T06:16:33;99118.69;;;4.99;100.00
21203;BME280;10759;51.982;9.232;2024-03-02T06:19:02;99113.34;;;5.24;100.00
21203;BME280;10759;51.982;9.232;2024-03-02T06:21:30;99114.97;;;5.28;100.00
21203;BME280;10759;51.982;9.232;2024-03-02T06:23:58;99121.34;;;5.47;100.00
21203;BME280;10759;51.982;9.232;2024-03-02T06:26:27;99117.69;;;5.51;100.00
21203;BME280;10759;51.982;9.232;2024-03-02T06:28:56;99118.25;;;5.59;100.00
21203;BME280;10759;51.982;9.232;2024-03-02T06:31:24;99119.16;;;5.58;100.00
21203;BME280;10759;51.982;9.232;2024-03-02T06:33:52;99112.75;;;5.64;100.00
21203;BME280;10759;51.982;9.232;2024-03-02T06:36:21;99125.97;;;5.66;100.00
21203;BME280;10759;51.982;9.232;2024-03-02T06:38:49;99139.72;;;5.77;100.00
21203;BME280;10759;51.982;9.232;2024-03-02T06:41:17;99144.94;;;5.80;100.00
21203;BME280;10759;51.982;9.232;2024-03-02T06:43:45;99147.38;;;5.86;100.00
21203;BME280;10759;51.982;9.232;2024-03-02T06:46:13;99152.28;;;5.97;100.00
21203;BME280;10759;51.982;9.232;2024-03-02T06:48:42;99131.25;;;5.91;100.00
21203;BME280;10759;51.982;9.232;2024-03-02T06:51:10;99155.78;;;5.99;100.00
21203;BME280;10759;51.982;9.232;2024-03-02T06:53:39;99159.75;;;6.11;100.00
21203;BME280;10759;51.982;9.232;2024-03-02T06:56:07;99164.50;;;6.24;100.00
21203;BME280;10759;51.982;9.232;2024-03-02T06:58:36;99136.84;;;6.07;100.00
21203;BME280;10759;51.982;9.232;2024-03-02T07:01:04;99159.00;;;6.29;100.00
21203;BME280;10759;51.982;9.232;2024-03-02T07:03:32;99163.78;;;6.43;100.00
21203;BME280;10759;51.982;9.232;2024-03-02T07:06:00;99172.50;;;6.47;100.00
21203;BME280;10759;51.982;9.232;2024-03-02T07:08:28;99165.16;;;6.53;100.00
21203;BME280;10759;51.982;9.232;2024-03-02T07:10:57;99159.31;;;6.65;100.00
21203;BME280;10759;51.982;9.232;2024-03-02T07:13:26;99166.38;;;6.66;100.00
21203;BME280;10759;51.982;9.232;2024-03-02T07:15:54;99152.38;;;6.61;100.00
21203;BME280;10759;51.982;9.232;2024-03-02T07:18:49;99168.63;;;6.98;100.00
21203;BME280;10759;51.982;9.232;2024-03-02T07:21:19;99173.63;;;7.05;100.00
21203;BME280;10759;51.982;9.232;2024-03-02T07:23:49;99168.78;;;7.15;100.00
21203;BME280;10759;51.982;9.232;2024-03-02T07:26:19;99171.44;;;7.15;100.00
21203;BME280;10759;51.982;9.232;2024-03-02T07:28:50;99173.50;;;7.29;100.00
21203;BME280;10759;51.982;9.232;2024-03-02T07:31:18;99161.09;;;7.28;100.00
21203;BME280;10759;51.982;9.232;2024-03-02T07:33:46;99171.88;;;7.45;100.00
21203;BME280;10759;51.982;9.232;2024-03-02T07:36:14;99169.09;;;7.48;100.00
21203;BME280;10759;51.982;9.232;2024-03-02T07:38:43;99182.94;;;7.57;100.00
21203;BME280;10759;51.982;9.232;2024-03-02T07:41:12;99160.00;;;7.52;100.00
21203;BME280;10759;51.982;9.232;2024-03-02T07:43:41;99178.78;;;7.70;100.00
21203;BME280;10759;51.982;9.232;2024-03-02T07:46:09;99167.22;;;7.71;100.00
21203;BME280;10759;51.982;9.232;2024-03-02T07:48:37;99184.88;;;7.73;100.00
21203;BME280;10759;51.982;9.232;2024-03-02T07:51:05;99176.66;;;7.78;100.00
21203;BME280;10759;51.982;9.232;2024-03-02T07:53:33;99181.53;;;7.68;100.00
21203;BME280;10759;51.982;9.232;2024-03-02T07:56:03;99167.97;;;7.54;100.00
21203;BME280;10759;51.982;9.232;2024-03-02T07:58:32;99192.91;;;7.72;100.00
21203;BME280;10759;51.982;9.232;2024-03-02T08:01:03;99177.31;;;7.63;100.00
21203;BME280;10759;51.982;9.232;2024-03-02T08:03:31;99196.38;;;7.74;100.00
21203;BME280;10759;51.982;9.232;2024-03-02T08:06:01;99203.78;;;7.67;100.00
21203;BME280;10759;51.982;9.232;2024-03-02T08:08:29;99198.53;;;7.66;100.00
21203;BME280;10759;51.982;9.232;2024-03-02T08:10:57;99206.47;;;7.67;100.00
21203;BME280;10759;51.982;9.232;2024-03-02T08:13:27;99208.25;;;7.67;100.00
21203;BME280;10759;51.982;9.232;2024-03-02T08:15:55;99202.72;;;7.71;100.00
21203;BME280;10759;51.982;9.232;2024-03-02T08:18:24;99200.22;;;7.68;100.00
21203;BME280;10759;51.982;9.232;2024-03-02T08:20:52;99189.53;;;7.68;100.00
21203;BME280;10759;51.982;9.232;2024-03-02T08:23:21;99201.06;;;7.69;100.00
21203;BME280;10759;51.982;9.232;2024-03-02T08:25:49;99213.19;;;7.76;100.00
21203;BME280;10759;51.982;9.232;2024-03-02T08:28:16;99192.06;;;7.71;100.00
21203;BME280;10759;51.982;9.232;2024-03-02T08:30:45;99205.03;;;7.79;100.00
21203;BME280;10759;51.982;9.232;2024-03-02T08:33:15;99195.53;;;7.73;100.00
21203;BME280;10759;51.982;9.232;2024-03-02T08:35:44;99206.84;;;7.79;100.00
21203;BME280;10759;51.982;9.232;2024-03-02T08:38:13;99216.38;;;7.84;100.00
21203;BME280;10759;51.982;9.232;2024-03-02T08:40:41;99217.13;;;7.88;100.00
21203;BME280;10759;51.982;9.232;2024-03-02T08:43:09;99219.91;;;7.85;100.00
21203;BME280;10759;51.982;9.232;2024-03-02T08:45:37;99214.16;;;7.94;100.00
21203;BME280;10759;51.982;9.232;2024-03-02T08:48:07;99216.63;;;7.99;100.00
21203;BME280;10759;51.982;9.232;2024-03-02T08:50:36;99210.88;;;8.08;100.00
21203;BME280;10759;51.982;9.232;2024-03-02T08:53:05;99219.38;;;8.16;100.00
21203;BME280;10759;51.982;9.232;2024-03-02T08:55:33;99220.09;;;8.20;100.00
21203;BME280;10759;51.982;9.232;2024-03-02T08:58:01;99215.63;;;8.20;100.00
21203;BME280;10759;51.982;9.232;2024-03-02T09:00:30;99212.53;;;8.10;100.00
21203;BME280;10759;51.982;9.232;2024-03-02T09:02:58;99217.56;;;8.16;100.00
21203;BME280;10759;51.982;9.232;2024-03-02T09:05:26;99213.75;;;8.22;100.00
21203;BME280;10759;51.982;9.232;2024-03-02T09:07:54;99215.47;;;8.23;100.00
21203;BME280;10759;51.982;9.232;2024-03-02T09:10:23;99220.81;;;8.23;100.00
21203;BME280;10759;51.982;9.232;2024-03-02T09:12:54;99221.25;;;8.33;100.00
21203;BME280;10759;51.982;9.232;2024-03-02T09:15:22;99221.91;;;8.38;100.00
21203;BME280;10759;51.982;9.232;2024-03-02T09:17:50;99220.53;;;8.67;100.00
21203;BME280;10759;51.982;9.232;2024-03-02T09:20:18;99223.66;;;8.94;100.00
21203;BME280;10759;51.982;9.232;2024-03-02T09:22:46;99228.09;;;9.13;100.00
21203;BME280;10759;51.982;9.232;2024-03-02T09:25:15;99208.84;;;9.06;100.00
21203;BME280;10759;51.982;9.232;2024-03-02T09:27:44;99222.44;;;9.19;100.00
21203;BME280;10759;51.982;9.232;2024-03-02T09:30:13;99224.78;;;9.08;100.00
21203;BME280;10759;51.982;9.232;2024-03-02T09:32:41;99217.25;;;8.98;100.00
21203;BME280;10759;51.982;9.232;2024-03-02T09:35:10;99221.25;;;9.07;100.00
21203;BME280;10759;51.982;9.232;2024-03-02T09:37:39;99223.00;;;9.26;100.00
21203;BME280;10759;51.982;9.232;2024-03-02T09:40:07;99224.09;;;9.39;100.00
21203;BME280;10759;51.982;9.232;2024-03-02T09:42:36;99221.59;;;9.53;100.00
21203;BME280;10759;51.982;9.232;2024-03-02T09:45:06;99219.84;;;9.52;100.00
21203;BME280;10759;51.982;9.232;2024-03-02T09:47:35;99228.72;;;9.70;100.00
21203;BME280;10759;51.982;9.232;2024-03-02T09:50:03;99224.63;;;9.63;100.00
21203;BME280;10759;51.982;9.232;2024-03-02T09:52:32;99216.28;;;9.69;99.97
21203;BME280;10759;51.982;9.232;2024-03-02T09:55:00;99182.38;;;9.52;99.95
21203;BME280;10759;51.982;9.232;2024-03-02T09:57:28;99220.13;;;9.81;98.00
21203;BME280;10759;51.982;9.232;2024-03-02T09:59:57;99218.50;;;9.94;96.94
21203;BME280;10759;51.982;9.232;2024-03-02T10:02:26;99218.63;;;10.08;96.28
21203;BME280;10759;51.982;9.232;2024-03-02T10:04:54;99209.88;;;10.22;94.92
21203;BME280;10759;51.982;9.232;2024-03-02T10:07:22;99213.38;;;10.40;96.38
21203;BME280;10759;51.982;9.232;2024-03-02T10:09:50;99210.50;;;10.43;93.86
21203;BME280;10759;51.982;9.232;2024-03-02T10:12:18;99222.88;;;10.62;96.54
21203;BME280;10759;51.982;9.232;2024-03-02T10:14:46;99219.94;;;10.66;92.82
21203;BME280;10759;51.982;9.232;2024-03-02T10:17:17;99203.94;;;10.65;92.12
21203;BME280;10759;51.982;9.232;2024-03-02T10:19:47;99213.72;;;10.66;91.86
21203;BME280;10759;51.982;9.232;2024-03-02T10:22:15;99213.78;;;10.80;90.95
21203;BME280;10759;51.982;9.232;2024-03-02T10:24:43;99219.06;;;10.82;90.22
21203;BME280;10759;51.982;9.232;2024-03-02T10:27:15;99221.75;;;10.66;90.46
21203;BME280;10759;51.982;9.232;2024-03-02T10:29:46;99139.38;;;10.06;89.88
21203;BME280;10759;51.982;9.232;2024-03-02T10:32:15;99213.53;;;10.37;91.75
21203;BME280;10759;51.982;9.232;2024-03-02T10:34:45;99210.06;;;10.35;90.60
21203;BME280;10759;51.982;9.232;2024-03-02T10:37:15;99216.28;;;10.36;92.37
21203;BME280;10759;51.982;9.232;2024-03-02T10:39:46;99214.75;;;10.31;91.78
21203;BME280;10759;51.982;9.232;2024-03-02T10:42:15;99214.75;;;10.31;93.12
21203;BME280;10759;51.982;9.232;2024-03-02T10:44:45;99205.06;;;10.29;90.31
21203;BME280;10759;51.982;9.232;2024-03-02T10:47:15;99213.88;;;10.63;92.14
21203;BME280;10759;51.982;9.232;2024-03-02T10:49:46;99214.16;;;10.74;90.66
21203;BME280;10759;51.982;9.232;2024-03-02T10:52:16;99214.63;;;10.96;89.55
21203;BME280;10759;51.982;9.232;2024-03-02T10:54:44;99220.00;;;10.96;88.72
21203;BME280;10759;51.982;9.232;2024-03-02T10:57:13;99218.22;;;10.81;87.90
21203;BME280;10759;51.982;9.232;2024-03-02T10:59:51;99214.16;;;10.74;87.39
21203;BME280;10759;51.982;9.232;2024-03-02T11:02:21;99209.84;;;10.71;87.18
21203;BME280;10759;51.982;9.232;2024-03-02T11:04:50;99223.63;;;10.95;85.68
21203;BME280;10759;51.982;9.232;2024-03-02T11:07:25;99222.22;;;11.34;86.61
21203;BME280;10759;51.982;9.232;2024-03-02T11:09:59;99207.16;;;11.48;84.48
21203;BME280;10759;51.982;9.232;2024-03-02T11:12:29;99200.19;;;11.59;83.75
21203;BME280;10759;51.982;9.232;2024-03-02T11:14:58;99219.28;;;11.69;83.37
21203;BME280;10759;51.982;9.232;2024-03-02T11:17:26;99222.25;;;11.79;83.29
21203;BME280;10759;51.982;9.232;2024-03-02T11:19:54;99210.66;;;11.78;83.49
21203;BME280;10759;51.982;9.232;2024-03-02T11:22:24;99215.47;;;11.88;82.34
21203;BME280;10759;51.982;9.232;2024-03-02T11:24:53;99188.38;;;11.92;82.88
21203;BME280;10759;51.982;9.232;2024-03-02T11:30:49;99201.31;;;12.00;81.10
21203;BME280;10759;51.982;9.232;2024-03-02T11:33:25;99188.38;;;12.07;79.27
21203;BME280;10759;51.982;9.232;2024-03-02T11:35:55;99195.25;;;12.11;79.52
21203;BME280;10759;51.982;9.232;2024-03-02T11:38:28;99194.09;;;12.15;79.26
21203;BME280;10759;51.982;9.232;2024-03-02T11:40:56;99196.72;;;12.16;81.02
21203;BME280;10759;51.982;9.232;2024-03-02T11:43:26;99192.75;;;12.22;79.73
21203;BME280;10759;51.982;9.232;2024-03-02T11:45:58;99191.91;;;12.36;78.46
21203;BME280;10759;51.982;9.232;2024-03-02T11:48:27;99200.81;;;12.36;81.68
21203;BME280;10759;51.982;9.232;2024-03-02T11:50:58;99153.19;;;12.11;79.65
21203;BME280;10759;51.982;9.232;2024-03-02T11:53:28;99188.31;;;12.35;81.84
21203;BME280;10759;51.982;9.232;2024-03-02T11:56:01;99182.72;;;12.11;80.13
21203;BME280;10759;51.982;9.232;2024-03-02T11:58:30;99137.81;;;11.85;79.50
21203;BME280;10759;51.982;9.232;2024-03-02T12:00:58;99164.50;;;12.02;81.28
21203;BME280;10759;51.982;9.232;2024-03-02T12:03:26;99083.75;;;11.48;80.32
21203;BME280;10759;51.982;9.232;2024-03-02T12:05:55;99174.16;;;12.05;83.46
21203;BME280;10759;51.982;9.232;2024-03-02T12:08:23;99163.72;;;12.14;84.74
21203;BME280;10759;51.982;9.232;2024-03-02T12:11:00;99175.03;;;12.05;81.97
21203;BME280;10759;51.982;9.232;2024-03-02T12:13:30;99175.69;;;12.23;85.77
21203;BME280;10759;51.982;9.232;2024-03-02T12:15:58;99184.91;;;12.19;81.90
21203;BME280;10759;51.982;9.232;2024-03-02T12:18:27;99170.03;;;12.13;81.40
21203;BME280;10759;51.982;9.232;2024-03-02T12:20:55;99175.03;;;12.05;82.77
21203;BME280;10759;51.982;9.232;2024-03-02T12:23:25;99165.25;;;12.04;83.82
21203;BME280;10759;51.982;9.232;2024-03-02T12:25:53;99171.47;;;12.19;83.36
21203;BME280;10759;51.982;9.232;2024-03-02T12:28:23;99157.78;;;12.09;82.17
21203;BME280;10759;51.982;9.232;2024-03-02T12:30:51;99174.03;;;12.20;81.21
21203;BME280;10759;51.982;9.232;2024-03-02T12:33:20;99169.84;;;12.31;82.12
21203;BME280;10759;51.982;9.232;2024-03-02T12:35:49;99171.56;;;12.32;80.80
21203;BME280;10759;51.982;9.232;2024-03-02T12:38:17;99167.81;;;12.34;80.93
21203;BME280;10759;51.982;9.232;2024-03-02T12:40:47;99163.97;;;12.38;81.19
21203;BME280;10759;51.982;9.232;2024-03-02T12:43:15;99166.53;;;12.40;81.70
21203;BME280;10759;51.982;9.232;2024-03-02T12:45:45;99153.66;;;12.45;80.49
21203;BME280;10759;51.982;9.232;2024-03-02T12:48:13;99154.22;;;12.50;80.63
21203;BME280;10759;51.982;9.232;2024-03-02T12:50:42;99150.19;;;12.57;81.34
21203;BME280;10759;51.982;9.232;2024-03-02T12:53:14;99152.78;;;12.59;78.99
21203;BME280;10759;51.982;9.232;2024-03-02T12:55:43;99124.31;;;12.42;78.94
21203;BME280;10759;51.982;9.232;2024-03-02T12:58:16;99151.81;;;12.60;81.13
21203;BME280;10759;51.982;9.232;2024-03-02T13:00:46;99151.50;;;12.64;79.72
21203;BME280;10759;51.982;9.232;2024-03-02T13:03:14;99151.13;;;12.71;80.72
21203;BME280;10759;51.982;9.232;2024-03-02T13:05:48;99118.69;;;12.59;78.69
21203;BME280;10759;51.982;9.232;2024-03-02T13:08:16;99147.81;;;12.80;79.38
21203;BME280;10759;51.982;9.232;2024-03-02T13:10:45;99139.94;;;12.77;79.91
21203;BME280;10759;51.982;9.232;2024-03-02T13:13:13;99132.56;;;12.80;79.23